createdAt,value
2018-11-25T00:00:13.504Z,91.70
2018-11-25T00:02:42.116Z,91.80
2018-11-25T00:05:10.722Z,91.70
2018-11-25T00:07:39.425Z,91.80
2018-11-25T00:10:08.512Z,91.90
2018-11-25T00:12:37.481Z,91.80
2018-11-25T00:15:08.297Z,91.60
2018-11-25T00:17:37.043Z,91.50
2018-11-25T00:20:08.309Z,91.50
2018-11-25T00:22:37.936Z,91.50
2018-11-25T00:25:08.111Z,91.00
2018-11-25T00:27:38.314Z,91.10
2018-11-25T00:30:09.861Z,91.20
2018-11-25T00:32:38.563Z,91.10
2018-11-25T00:35:08.884Z,91.30
2018-11-25T00:37:37.459Z,91.20
2018-11-25T00:40:07.824Z,91.50
2018-11-25T00:42:36.612Z,91.40
2018-11-25T00:45:07.704Z,91.40
2018-11-25T00:47:36.556Z,91.20
2018-11-25T00:50:07.808Z,91.40
2018-11-25T00:52:36.751Z,91.40
2018-11-25T00:55:07.588Z,91.20
2018-11-25T00:57:36.317Z,91.00
2018-11-25T01:00:07.780Z,91.10
2018-11-25T01:02:36.466Z,91.10
2018-11-25T01:05:05.117Z,91.00
2018-11-25T01:07:34.196Z,91.10
2018-11-25T01:10:02.961Z,91.00
2018-11-25T01:12:31.884Z,91.20
2018-11-25T01:15:00.491Z,91.30
2018-11-25T01:17:29.153Z,91.40
2018-11-25T01:19:57.740Z,91.00
2018-11-25T01:22:26.411Z,91.10
2018-11-25T01:24:55.052Z,91.30
2018-11-25T01:27:23.727Z,91.20
2018-11-25T01:29:52.356Z,91.70
2018-11-25T01:32:20.962Z,91.40
2018-11-25T01:34:49.559Z,91.50
2018-11-25T01:37:18.234Z,91.30
2018-11-25T01:39:47.229Z,91.20
2018-11-25T01:42:16.235Z,91.30
2018-11-25T01:44:44.940Z,91.30
2018-11-25T01:47:13.547Z,90.70
2018-11-25T01:49:42.188Z,91.00
2018-11-25T01:52:10.800Z,91.10
2018-11-25T01:54:39.400Z,91.10
2018-11-25T01:57:08.043Z,91.20
2018-11-25T01:59:36.686Z,91.40
2018-11-25T02:02:05.510Z,91.50
2018-11-25T02:04:34.120Z,91.10
2018-11-25T02:07:02.863Z,90.90
2018-11-25T02:09:31.668Z,91.10
2018-11-25T02:12:00.277Z,91.20
2018-11-25T02:14:29.196Z,91.20
2018-11-25T02:16:57.800Z,91.40
2018-11-25T02:19:26.947Z,91.90
2018-11-25T02:21:55.525Z,91.60
2018-11-25T02:24:24.216Z,91.50
2018-11-25T02:26:53.393Z,91.40
2018-11-25T02:29:22.009Z,91.60
2018-11-25T02:31:51.060Z,91.60
2018-11-25T02:34:20.783Z,91.90
2018-11-25T02:36:49.565Z,91.70
2018-11-25T02:39:18.164Z,91.70
2018-11-25T02:41:47.339Z,91.60
2018-11-25T02:44:15.942Z,91.70
2018-11-25T02:46:44.517Z,91.70
2018-11-25T02:49:13.772Z,91.80
2018-11-25T02:51:42.364Z,91.90
2018-11-25T02:54:11.487Z,92.00
2018-11-25T02:56:40.181Z,92.10
2018-11-25T02:59:08.811Z,91.70
2018-11-25T03:01:37.599Z,91.70
2018-11-25T03:04:06.284Z,91.90
2018-11-25T03:06:34.883Z,91.80
2018-11-25T03:09:03.812Z,91.90
2018-11-25T03:11:32.419Z,91.90
2018-11-25T03:14:01.048Z,91.80
2018-11-25T03:16:29.935Z,91.80
2018-11-25T03:18:58.876Z,91.80
2018-11-25T03:21:28.329Z,91.70
2018-11-25T03:23:56.981Z,91.80
2018-11-25T03:26:25.576Z,92.00
2018-11-25T03:28:54.284Z,92.40
2018-11-25T03:31:22.888Z,92.00
2018-11-25T03:33:51.519Z,91.90
2018-11-25T03:36:20.132Z,92.10
2018-11-25T03:38:48.735Z,92.00
2018-11-25T03:41:18.223Z,92.10
2018-11-25T03:43:47.232Z,91.90
2018-11-25T03:46:15.901Z,92.20
2018-11-25T03:48:44.493Z,92.30
2018-11-25T03:51:13.203Z,92.30
2018-11-25T03:53:41.815Z,92.00
2018-11-25T03:56:10.786Z,91.90
2018-11-25T03:58:39.372Z,92.00
2018-11-25T04:01:07.941Z,92.20
2018-11-25T04:03:36.587Z,92.30
2018-11-25T04:06:05.937Z,92.30
2018-11-25T04:08:34.573Z,92.10
2018-11-25T04:11:03.212Z,92.10
2018-11-25T04:13:32.181Z,92.10
2018-11-25T04:16:00.833Z,92.10
2018-11-25T04:18:29.521Z,91.70
2018-11-25T04:20:58.123Z,92.10
2018-11-25T04:23:26.783Z,92.30
2018-11-25T04:25:55.660Z,92.50
2018-11-25T04:28:24.372Z,92.30
2018-11-25T04:30:53.216Z,92.10
2018-11-25T04:33:21.826Z,92.10
2018-11-25T04:35:50.644Z,92.10
2018-11-25T04:38:19.488Z,92.10
2018-11-25T04:40:48.079Z,92.10
2018-11-25T04:43:16.691Z,91.60
2018-11-25T04:45:45.684Z,91.70
2018-11-25T04:48:14.287Z,91.80
2018-11-25T04:50:42.868Z,91.50
2018-11-25T04:53:11.748Z,91.60
2018-11-25T04:55:40.343Z,91.80
2018-11-25T04:58:08.928Z,91.80
2018-11-25T05:00:37.510Z,91.80
2018-11-25T05:03:06.179Z,91.90
2018-11-25T05:05:34.856Z,92.00
2018-11-25T05:08:03.448Z,92.20
2018-11-25T05:10:32.206Z,92.20
2018-11-25T05:13:00.789Z,92.30
2018-11-25T05:15:29.385Z,92.40
2018-11-25T05:17:57.999Z,92.20
2018-11-25T05:20:26.618Z,92.30
2018-11-25T05:22:55.236Z,92.10
2018-11-25T05:25:24.063Z,92.00
2018-11-25T05:27:52.666Z,92.00
2018-11-25T05:30:21.408Z,92.10
2018-11-25T05:32:50.307Z,92.10
2018-11-25T05:35:19.983Z,92.20
2018-11-25T05:37:48.654Z,92.10
2018-11-25T05:40:17.304Z,92.10
2018-11-25T05:42:46.264Z,92.20
2018-11-25T05:45:15.787Z,92.10
2018-11-25T05:47:44.607Z,92.10
2018-11-25T05:50:14.044Z,92.10
2018-11-25T05:52:42.635Z,92.00
2018-11-25T05:55:11.692Z,92.10
2018-11-25T05:57:40.619Z,92.10
2018-11-25T06:00:28.783Z,92.00
2018-11-25T06:02:57.680Z,92.00
2018-11-25T06:05:26.289Z,91.80
2018-11-25T06:07:54.880Z,91.90
2018-11-25T06:10:23.636Z,92.00
2018-11-25T06:12:52.320Z,91.90
2018-11-25T06:15:21.036Z,91.80
2018-11-25T06:17:49.639Z,91.70
2018-11-25T06:20:18.320Z,91.80
2018-11-25T06:22:47.097Z,91.90
2018-11-25T06:25:16.681Z,92.20
2018-11-25T06:27:45.538Z,92.00
2018-11-25T06:30:15.088Z,91.90
2018-11-25T06:32:43.709Z,92.20
2018-11-25T06:35:13.419Z,92.20
2018-11-25T06:37:42.108Z,92.00
2018-11-25T06:40:15.432Z,92.10
2018-11-25T06:42:44.035Z,91.90
2018-11-25T06:45:14.968Z,91.80
2018-11-25T06:47:43.583Z,92.10
2018-11-25T06:50:12.593Z,92.10
2018-11-25T06:52:41.297Z,92.00
2018-11-25T06:55:11.348Z,92.10
2018-11-25T06:57:39.994Z,92.20
2018-11-25T07:00:11.649Z,92.10
2018-11-25T07:02:40.252Z,92.20
2018-11-25T07:05:09.076Z,92.20
2018-11-25T07:07:37.724Z,91.90
2018-11-25T07:10:09.121Z,92.00
2018-11-25T07:12:37.820Z,91.90
2018-11-25T07:15:08.720Z,91.80
2018-11-25T07:17:37.586Z,91.80
2018-11-25T07:20:08.244Z,92.10
2018-11-25T07:22:37.304Z,92.10
2018-11-25T07:25:09.413Z,92.00
2018-11-25T07:27:38.036Z,92.10
2018-11-25T07:30:11.151Z,92.00
2018-11-25T07:32:39.833Z,92.00
2018-11-25T07:35:08.460Z,92.10
2018-11-25T07:37:37.134Z,92.00
2018-11-25T07:40:08.666Z,92.00
2018-11-25T07:42:37.348Z,92.10
2018-11-25T07:45:08.886Z,91.90
2018-11-25T07:47:37.495Z,91.70
2018-11-25T07:50:07.574Z,91.90
2018-11-25T07:52:36.461Z,92.20
2018-11-25T07:55:10.267Z,92.20
2018-11-25T07:57:39.212Z,91.90
2018-11-25T08:00:12.103Z,91.80
2018-11-25T08:02:41.524Z,91.80
2018-11-25T08:05:10.047Z,91.90
2018-11-25T08:07:38.980Z,91.90
2018-11-25T08:10:11.470Z,91.80
2018-11-25T08:12:40.306Z,92.00
2018-11-25T08:15:24.036Z,91.90
2018-11-25T08:17:53.142Z,91.80
2018-11-25T08:20:22.568Z,91.90
2018-11-25T08:22:51.392Z,91.80
2018-11-25T08:25:20.756Z,91.70
2018-11-25T08:27:49.849Z,91.90
2018-11-25T08:30:19.477Z,91.90
2018-11-25T08:32:48.108Z,91.50
2018-11-25T08:35:17.226Z,91.70
2018-11-25T08:37:46.748Z,92.00
2018-11-25T08:40:19.263Z,91.90
2018-11-25T08:42:48.188Z,91.70
2018-11-25T08:45:16.784Z,91.70
2018-11-25T08:47:45.412Z,91.80
2018-11-25T08:50:15.950Z,91.80
2018-11-25T08:52:45.499Z,91.80
2018-11-25T08:55:17.959Z,91.70
2018-11-25T08:57:46.740Z,91.90
2018-11-25T09:00:18.105Z,91.60
2018-11-25T09:02:47.219Z,91.40
2018-11-25T09:05:15.929Z,91.50
2018-11-25T09:07:44.918Z,91.40
2018-11-25T09:10:14.467Z,91.50
2018-11-25T09:12:43.582Z,91.40
2018-11-25T09:15:14.268Z,91.50
2018-11-25T09:17:42.924Z,91.40
2018-11-25T09:20:13.685Z,91.30
2018-11-25T09:22:42.339Z,91.30
2018-11-25T09:25:18.612Z,91.30
2018-11-25T09:27:47.219Z,91.20
2018-11-25T09:30:16.980Z,91.50
2018-11-25T09:32:45.564Z,91.30
2018-11-25T09:35:14.210Z,91.10
2018-11-25T09:37:42.814Z,91.10
2018-11-25T09:40:12.635Z,90.90
2018-11-25T09:42:41.291Z,90.80
2018-11-25T09:45:12.114Z,90.90
2018-11-25T09:47:40.836Z,91.10
2018-11-25T09:50:11.352Z,90.90
2018-11-25T09:52:39.977Z,91.00
2018-11-25T09:55:13.613Z,91.20
2018-11-25T09:57:43.840Z,91.10
2018-11-25T10:00:14.672Z,91.10
2018-11-25T10:02:43.316Z,91.20
2018-11-25T10:05:11.964Z,91.20
2018-11-25T10:07:40.612Z,91.40
2018-11-25T10:10:13.393Z,91.10
2018-11-25T10:12:42.028Z,91.40
2018-11-25T10:15:12.558Z,91.30
2018-11-25T10:17:41.501Z,91.40
2018-11-25T10:20:13.129Z,91.20
2018-11-25T10:22:41.898Z,91.10
2018-11-25T10:25:11.775Z,91.30
2018-11-25T10:27:40.377Z,91.50
2018-11-25T10:30:15.097Z,91.60
2018-11-25T10:32:44.168Z,91.90
2018-11-25T10:35:13.099Z,91.40
2018-11-25T10:37:41.831Z,91.50
2018-11-25T10:40:14.384Z,91.50
2018-11-25T10:42:43.032Z,91.50
2018-11-25T10:45:14.544Z,91.50
2018-11-25T10:47:43.376Z,91.30
2018-11-25T10:50:13.073Z,91.30
2018-11-25T10:52:41.883Z,91.50
2018-11-25T10:55:11.500Z,91.50
2018-11-25T10:57:40.622Z,91.50
2018-11-25T11:00:19.004Z,91.50
2018-11-25T11:02:47.708Z,91.60
2018-11-25T11:05:21.816Z,91.60
2018-11-25T11:07:50.493Z,91.40
2018-11-25T11:10:19.108Z,91.40
2018-11-25T11:12:48.251Z,91.60
2018-11-25T11:15:17.191Z,91.70
2018-11-25T11:17:45.948Z,91.70
2018-11-25T11:20:14.777Z,91.50
2018-11-25T11:22:43.467Z,91.50
2018-11-25T11:25:12.278Z,91.60
2018-11-25T11:27:41.152Z,91.60
2018-11-25T11:30:10.535Z,91.40
2018-11-25T11:32:43.756Z,91.50
2018-11-25T11:35:12.584Z,91.40
2018-11-25T11:37:41.432Z,91.80
2018-11-25T11:40:11.597Z,91.40
2018-11-25T11:42:40.480Z,91.40
2018-11-25T11:45:10.636Z,91.50
2018-11-25T11:47:39.268Z,91.50
2018-11-25T11:50:15.705Z,91.80
2018-11-25T11:52:44.597Z,91.30
2018-11-25T11:55:14.135Z,91.50
2018-11-25T11:57:43.734Z,91.40
2018-11-25T12:00:16.665Z,91.50
2018-11-25T12:02:45.745Z,91.60
2018-11-25T12:05:14.404Z,91.50
2018-11-25T12:07:43.008Z,91.50
2018-11-25T12:10:12.997Z,91.50
2018-11-25T12:12:41.615Z,91.50
2018-11-25T12:15:12.862Z,91.40
2018-11-25T12:17:41.484Z,91.50
2018-11-25T12:20:10.538Z,91.50
2018-11-25T12:22:39.669Z,91.60
2018-11-25T12:25:14.616Z,91.80
2018-11-25T12:27:43.256Z,91.40
2018-11-25T12:30:12.747Z,91.80
2018-11-25T12:32:41.885Z,91.60
2018-11-25T12:35:11.348Z,91.30
2018-11-25T12:37:40.317Z,91.40
2018-11-25T12:40:16.914Z,91.70
2018-11-25T12:42:47.157Z,91.50
2018-11-25T12:45:16.696Z,91.70
2018-11-25T12:47:45.298Z,91.70
2018-11-25T12:50:16.090Z,92.10
2018-11-25T12:52:45.523Z,92.20
2018-11-25T12:55:15.374Z,92.30
2018-11-25T12:57:44.013Z,92.00
2018-11-25T13:00:49.852Z,91.80
2018-11-25T13:03:18.488Z,91.80
2018-11-25T13:05:47.098Z,91.60
2018-11-25T13:08:15.698Z,91.50
2018-11-25T13:10:45.249Z,91.50
2018-11-25T13:13:13.900Z,91.70
2018-11-25T13:15:42.779Z,92.00
2018-11-25T13:18:11.462Z,91.70
2018-11-25T13:20:40.402Z,91.90
2018-11-25T13:23:09.855Z,92.10
2018-11-25T13:25:38.664Z,92.30
2018-11-25T13:28:07.484Z,92.30
2018-11-25T13:30:36.100Z,92.50
2018-11-25T13:33:06.083Z,92.60
2018-11-25T13:35:37.171Z,92.70
2018-11-25T13:38:07.161Z,92.70
2018-11-25T13:40:35.984Z,92.50
2018-11-25T13:43:04.741Z,92.20
2018-11-25T13:45:33.664Z,91.90
2018-11-25T13:48:02.278Z,91.80
2018-11-25T13:50:31.009Z,91.90
2018-11-25T13:52:59.635Z,92.00
2018-11-25T13:55:28.728Z,92.10
2018-11-25T13:57:58.280Z,91.80
2018-11-25T14:00:32.185Z,91.90
2018-11-25T14:03:01.347Z,92.10
2018-11-25T14:05:30.024Z,92.10
2018-11-25T14:07:58.603Z,92.20
2018-11-25T14:10:29.274Z,92.30
2018-11-25T14:12:58.727Z,92.30
2018-11-25T14:15:27.355Z,92.50
2018-11-25T14:17:56.246Z,92.50
2018-11-25T14:20:24.901Z,92.50
2018-11-25T14:22:53.528Z,92.40
2018-11-25T14:25:22.944Z,92.30
2018-11-25T14:27:53.724Z,92.30
2018-11-25T14:30:24.588Z,92.50
2018-11-25T14:32:53.236Z,92.50
2018-11-25T14:35:21.869Z,92.60
2018-11-25T14:37:50.720Z,92.80
2018-11-25T14:40:20.240Z,92.80
2018-11-25T14:42:49.076Z,92.60
2018-11-25T14:45:21.524Z,92.60
2018-11-25T14:50:50.489Z,92.40
2018-11-25T14:53:19.688Z,92.00
2018-11-25T14:55:48.444Z,92.00
2018-11-25T14:58:17.096Z,92.10
2018-11-25T15:00:45.825Z,92.20
2018-11-25T15:03:14.522Z,92.10
2018-11-25T15:05:44.628Z,92.60
2018-11-25T15:08:16.927Z,92.10
2018-11-25T15:10:45.781Z,92.30
2018-11-25T15:13:14.416Z,92.30
2018-11-25T15:15:43.152Z,92.20
2018-11-25T15:18:11.905Z,92.50
2018-11-25T15:20:40.539Z,92.50
2018-11-25T15:23:10.834Z,92.40
2018-11-25T15:25:42.322Z,92.40
2018-11-25T15:28:11.082Z,92.50
2018-11-25T15:30:39.664Z,92.50
2018-11-25T15:33:08.580Z,92.30
2018-11-25T15:35:37.293Z,92.20
2018-11-25T15:38:06.411Z,92.20
2018-11-25T15:40:35.901Z,92.10
2018-11-25T15:43:04.764Z,92.40
2018-11-25T15:45:34.060Z,92.20
2018-11-25T15:48:09.005Z,92.50
2018-11-25T15:50:42.991Z,92.50
2018-11-25T15:53:14.292Z,92.30
2018-11-25T15:55:44.226Z,92.30
2018-11-25T15:58:30.442Z,92.40
2018-11-25T16:01:06.521Z,92.60
2018-11-25T16:03:45.905Z,92.50
2018-11-25T16:06:23.876Z,92.60
2018-11-25T16:08:54.922Z,92.50
2018-11-25T16:11:25.211Z,92.70
2018-11-25T16:14:19.770Z,92.70
2018-11-25T16:16:52.083Z,92.60
2018-11-25T16:19:23.100Z,92.40
2018-11-25T16:21:55.860Z,92.50
2018-11-25T16:24:27.909Z,92.50
2018-11-25T16:27:00.653Z,92.70
2018-11-25T16:29:32.040Z,92.80
2018-11-25T16:32:00.697Z,92.70
2018-11-25T16:34:33.710Z,92.70
2018-11-25T16:37:04.079Z,92.40
2018-11-25T16:39:37.153Z,92.40
2018-11-25T16:42:14.266Z,92.40
2018-11-25T16:44:48.132Z,92.30
2018-11-25T16:47:19.072Z,92.30
2018-11-25T16:49:48.043Z,92.50
2018-11-25T16:52:19.862Z,92.30
2018-11-25T16:54:54.244Z,92.40
2018-11-25T16:57:23.876Z,92.70
2018-11-25T16:59:55.623Z,92.50
2018-11-25T17:02:34.466Z,92.60
2018-11-25T17:05:26.601Z,92.50
2018-11-25T17:08:04.223Z,92.50
2018-11-25T17:10:32.958Z,92.60
2018-11-25T17:13:03.430Z,92.70
2018-11-25T17:15:32.616Z,92.60
2018-11-25T17:18:01.634Z,92.70
2018-11-25T17:20:30.866Z,92.60
2018-11-25T17:23:00.039Z,92.70
2018-11-25T17:25:30.185Z,92.90
2018-11-25T17:28:05.946Z,92.90
2018-11-25T17:30:35.042Z,93.10
2018-11-25T17:33:16.604Z,93.20
2018-11-25T17:36:12.719Z,93.20
2018-11-25T17:38:48.895Z,93.30
2018-11-25T17:41:28.557Z,93.40
2018-11-25T17:44:06.712Z,93.30
2018-11-25T17:46:37.298Z,93.50
2018-11-25T17:49:07.376Z,93.30
2018-11-25T17:51:36.309Z,93.50
2018-11-25T17:54:05.333Z,93.70
2018-11-25T17:56:34.485Z,93.60
2018-11-25T17:59:03.204Z,93.60
2018-11-25T18:01:31.970Z,93.80
2018-11-25T18:04:00.922Z,93.70
2018-11-25T18:06:30.312Z,93.50
2018-11-25T18:08:59.040Z,93.40
2018-11-25T18:11:27.812Z,93.50
2018-11-25T18:13:57.290Z,93.50
2018-11-25T18:16:26.076Z,93.50
2018-11-25T18:19:11.799Z,93.40
2018-11-25T18:21:40.442Z,93.40
2018-11-25T18:24:09.053Z,93.50
2018-11-25T18:26:37.717Z,93.40
2018-11-25T18:29:06.696Z,93.40
2018-11-25T18:31:35.396Z,93.50
2018-11-25T18:34:04.064Z,93.40
2018-11-25T18:36:32.752Z,93.30
2018-11-25T18:39:01.491Z,93.30
2018-11-25T18:41:31.119Z,93.20
2018-11-25T18:44:01.018Z,93.20
2018-11-25T18:46:29.972Z,93.40
2018-11-25T18:48:58.656Z,93.60
2018-11-25T18:51:27.285Z,93.30
2018-11-25T18:53:56.004Z,93.20
2018-11-25T18:56:24.757Z,93.30
2018-11-25T18:58:53.421Z,93.10
2018-11-25T19:01:28.933Z,93.30
2018-11-25T19:03:57.833Z,93.40
2018-11-25T19:06:26.973Z,93.30
2018-11-25T19:08:55.813Z,93.30
2018-11-25T19:11:25.375Z,93.40
2018-11-25T19:13:54.008Z,93.30
2018-11-25T19:16:22.819Z,93.20
2018-11-25T19:18:51.519Z,93.40
2018-11-25T19:21:20.184Z,93.50
2018-11-25T19:23:49.001Z,93.40
2018-11-25T19:26:17.855Z,93.60
2018-11-25T19:28:46.563Z,93.60
2018-11-25T19:31:15.198Z,93.60
2018-11-25T19:33:43.945Z,93.70
2018-11-25T19:36:12.581Z,93.70
2018-11-25T19:38:41.229Z,93.70
2018-11-25T19:41:09.969Z,93.70
2018-11-25T19:43:41.428Z,93.40
2018-11-25T19:46:10.093Z,93.10
2018-11-25T19:48:38.748Z,93.10
2018-11-25T19:51:07.468Z,93.20
2018-11-25T19:53:36.266Z,93.10
2018-11-25T19:56:05.129Z,93.00
2018-11-25T19:58:33.811Z,93.10
2018-11-25T20:01:02.997Z,93.20
2018-11-25T20:03:32.422Z,93.20
2018-11-25T20:06:02.205Z,93.20
2018-11-25T20:08:31.007Z,93.10
2018-11-25T20:11:00.700Z,93.20
2018-11-25T20:13:29.649Z,93.40
2018-11-25T20:16:03.928Z,93.10
2018-11-25T20:18:32.886Z,92.90
2018-11-25T20:21:07.893Z,92.90
2018-11-25T20:23:36.777Z,92.90
2018-11-25T20:26:05.720Z,93.10
2018-11-25T20:28:34.625Z,93.20
2018-11-25T20:31:03.314Z,93.70
2018-11-25T20:33:37.837Z,93.40
2018-11-25T20:36:06.488Z,93.50
2018-11-25T20:38:40.575Z,93.60
2018-11-25T20:41:09.472Z,93.60
2018-11-25T20:43:38.379Z,93.60
2018-11-25T20:46:12.412Z,93.70
2018-11-25T20:48:41.300Z,93.70
2018-11-25T20:51:09.958Z,93.80
2018-11-25T20:53:43.931Z,93.80
2018-11-25T20:56:12.585Z,93.90
2018-11-25T20:58:41.323Z,94.00
2018-11-25T21:01:09.985Z,94.00
2018-11-25T21:03:38.596Z,94.20
2018-11-25T21:06:07.217Z,94.00
2018-11-25T21:08:35.856Z,93.70
2018-11-25T21:11:04.816Z,93.70
2018-11-25T21:13:33.708Z,93.70
2018-11-25T21:16:03.750Z,93.80
2018-11-25T21:18:33.517Z,93.70
2018-11-25T21:21:03.165Z,93.90
2018-11-25T21:23:34.044Z,93.70
2018-11-25T21:26:03.648Z,93.80
2018-11-25T21:28:33.181Z,93.90
2018-11-25T21:31:01.836Z,93.90
2018-11-25T21:33:30.448Z,93.70
2018-11-25T21:35:59.224Z,93.70
2018-11-25T21:38:27.867Z,93.60
2018-11-25T21:40:56.612Z,93.60
2018-11-25T21:43:25.256Z,93.60
2018-11-25T21:45:53.904Z,93.50
2018-11-25T21:48:22.561Z,93.50
2018-11-25T21:50:51.181Z,93.50
2018-11-25T21:53:19.816Z,93.60
2018-11-25T21:58:17.396Z,93.80
2018-11-25T22:00:46.067Z,93.70
2018-11-25T22:03:14.817Z,93.70
2018-11-25T22:05:43.428Z,93.60
2018-11-25T22:08:12.061Z,93.50
2018-11-25T22:10:40.896Z,93.40
2018-11-25T22:13:09.536Z,93.60
2018-11-25T22:15:38.135Z,93.50
2018-11-25T22:18:06.768Z,93.60
2018-11-25T22:20:35.568Z,93.60
2018-11-25T22:23:04.377Z,93.50
2018-11-25T22:25:33.252Z,93.60
2018-11-25T22:28:01.884Z,93.60
2018-11-25T22:30:30.671Z,93.80
2018-11-25T22:32:59.309Z,93.70
2018-11-25T22:35:27.944Z,93.70
2018-11-25T22:37:56.560Z,93.70
2018-11-25T22:40:25.373Z,93.80
2018-11-25T22:42:54.092Z,93.80
2018-11-25T22:45:23.352Z,93.80
2018-11-25T22:47:52.028Z,93.70
2018-11-25T22:50:21.481Z,93.70
2018-11-25T22:52:50.163Z,93.50
2018-11-25T22:55:22.179Z,93.60
2018-11-25T22:57:50.907Z,93.60
2018-11-25T23:00:26.181Z,93.60
2018-11-25T23:02:54.807Z,93.70
2018-11-25T23:05:34.796Z,93.50
2018-11-25T23:08:03.861Z,93.60
2018-11-25T23:10:32.505Z,93.80
2018-11-25T23:13:01.300Z,93.60
2018-11-25T23:15:29.925Z,93.60
2018-11-25T23:17:58.571Z,93.60
2018-11-25T23:20:27.381Z,93.60
2018-11-25T23:22:56.000Z,93.70
2018-11-25T23:25:24.636Z,93.50
2018-11-25T23:27:53.449Z,93.50
2018-11-25T23:30:22.092Z,93.50
2018-11-25T23:32:50.700Z,93.50
2018-11-25T23:35:27.337Z,93.50
2018-11-25T23:37:55.943Z,93.50
2018-11-25T23:40:24.556Z,93.40
2018-11-25T23:42:53.172Z,93.50
2018-11-25T23:45:21.814Z,93.50
2018-11-25T23:47:50.421Z,93.40
2018-11-25T23:50:19.274Z,93.70
2018-11-25T23:52:48.499Z,93.50
2018-11-25T23:55:17.128Z,93.50
2018-11-25T23:57:45.971Z,93.50
